sensor_id;sensor_type;location;lat;lon;timestamp;temperature;humidity
81383;DHT22;70834;37.534;-122.308;2024-02-23T00:00:46;18.10;58.70
81383;DHT22;70834;37.534;-122.308;2024-02-23T00:03:07;18.10;58.30
81383;DHT22;70834;37.534;-122.308;2024-02-23T00:05:29;18.00;58.60
81383;DHT22;70834;37.534;-122.308;2024-02-23T00:07:50;18.10;58.40
81383;DHT22;70834;37.534;-122.308;2024-02-23T00:10:12;18.00;59.50
81383;DHT22;70834;37.534;-122.308;2024-02-23T00:12:34;18.00;58.80
81383;DHT22;70834;37.534;-122.308;2024-02-23T00:14:55;18.00;59.10
81383;DHT22;70834;37.534;-122.308;2024-02-23T00:17:16;18.00;59.40
81383;DHT22;70834;37.534;-122.308;2024-02-23T00:19:38;18.00;59.00
81383;DHT22;70834;37.534;-122.308;2024-02-23T00:21:59;18.00;58.40
81383;DHT22;70834;37.534;-122.308;2024-02-23T00:24:21;18.00;58.00
81383;DHT22;70834;37.534;-122.308;2024-02-23T00:26:43;17.90;59.00
81383;DHT22;70834;37.534;-122.308;2024-02-23T00:29:04;17.90;59.20
81383;DHT22;70834;37.534;-122.308;2024-02-23T00:31:26;17.90;58.50
81383;DHT22;70834;37.534;-122.308;2024-02-23T00:33:47;18.00;58.20
81383;DHT22;70834;37.534;-122.308;2024-02-23T00:36:08;17.90;57.90
81383;DHT22;70834;37.534;-122.308;2024-02-23T00:38:30;17.90;58.50
81383;DHT22;70834;37.534;-122.308;2024-02-23T00:40:51;17.90;59.40
81383;DHT22;70834;37.534;-122.308;2024-02-23T00:43:12;17.90;59.20
81383;DHT22;70834;37.534;-122.308;2024-02-23T00:45:34;17.80;59.70
81383;DHT22;70834;37.534;-122.308;2024-02-23T00:47:55;17.80;59.90
81383;DHT22;70834;37.534;-122.308;2024-02-23T00:50:18;17.80;60.00
81383;DHT22;70834;37.534;-122.308;2024-02-23T00:52:40;17.80;59.40
81383;DHT22;70834;37.534;-122.308;2024-02-23T00:55:02;17.70;59.20
81383;DHT22;70834;37.534;-122.308;2024-02-23T00:57:23;17.70;59.30
81383;DHT22;70834;37.534;-122.308;2024-02-23T00:59:50;17.70;59.10
81383;DHT22;70834;37.534;-122.308;2024-02-23T01:02:11;17.70;59.50
81383;DHT22;70834;37.534;-122.308;2024-02-23T01:04:33;17.70;60.00
81383;DHT22;70834;37.534;-122.308;2024-02-23T01:06:54;17.60;60.00
81383;DHT22;70834;37.534;-122.308;2024-02-23T01:09:16;17.60;59.60
81383;DHT22;70834;37.534;-122.308;2024-02-23T01:11:59;17.70;59.40
81383;DHT22;70834;37.534;-122.308;2024-02-23T01:14:21;17.60;59.70
81383;DHT22;70834;37.534;-122.308;2024-02-23T01:16:44;17.50;60.30
81383;DHT22;70834;37.534;-122.308;2024-02-23T01:19:06;17.50;59.90
81383;DHT22;70834;37.534;-122.308;2024-02-23T01:21:31;17.50;60.10
81383;DHT22;70834;37.534;-122.308;2024-02-23T01:23:52;17.40;60.40
81383;DHT22;70834;37.534;-122.308;2024-02-23T01:26:14;17.40;60.00
81383;DHT22;70834;37.534;-122.308;2024-02-23T01:28:35;17.30;60.00
81383;DHT22;70834;37.534;-122.308;2024-02-23T01:30:56;17.30;60.40
81383;DHT22;70834;37.534;-122.308;2024-02-23T01:33:18;17.30;61.00
81383;DHT22;70834;37.534;-122.308;2024-02-23T01:35:39;17.20;61.20
81383;DHT22;70834;37.534;-122.308;2024-02-23T01:38:01;17.10;61.60
81383;DHT22;70834;37.534;-122.308;2024-02-23T01:40:22;17.10;61.90
81383;DHT22;70834;37.534;-122.308;2024-02-23T01:42:44;17.10;62.20
81383;DHT22;70834;37.534;-122.308;2024-02-23T01:45:05;17.00;62.40
81383;DHT22;70834;37.534;-122.308;2024-02-23T01:47:29;16.90;62.60
81383;DHT22;70834;37.534;-122.308;2024-02-23T01:49:51;16.80;62.70
81383;DHT22;70834;37.534;-122.308;2024-02-23T01:52:14;16.70;63.00
81383;DHT22;70834;37.534;-122.308;2024-02-23T01:54:36;16.70;63.20
81383;DHT22;70834;37.534;-122.308;2024-02-23T01:56:58;16.60;63.40
81383;DHT22;70834;37.534;-122.308;2024-02-23T01:59:20;16.50;63.60
81383;DHT22;70834;37.534;-122.308;2024-02-23T02:01:43;16.40;63.70
81383;DHT22;70834;37.534;-122.308;2024-02-23T02:04:05;16.30;64.40
81383;DHT22;70834;37.534;-122.308;2024-02-23T02:06:26;16.30;64.90
81383;DHT22;70834;37.534;-122.308;2024-02-23T02:08:48;16.20;65.40
81383;DHT22;70834;37.534;-122.308;2024-02-23T02:11:09;16.10;65.70
81383;DHT22;70834;37.534;-122.308;2024-02-23T02:13:31;16.00;66.10
81383;DHT22;70834;37.534;-122.308;2024-02-23T02:15:52;15.90;66.50
81383;DHT22;70834;37.534;-122.308;2024-02-23T02:18:14;15.80;66.60
81383;DHT22;70834;37.534;-122.308;2024-02-23T02:20:36;15.70;66.90
81383;DHT22;70834;37.534;-122.308;2024-02-23T02:22:58;15.60;67.20
81383;DHT22;70834;37.534;-122.308;2024-02-23T02:25:19;15.50;67.30
81383;DHT22;70834;37.534;-122.308;2024-02-23T02:27:41;15.50;67.50
81383;DHT22;70834;37.534;-122.308;2024-02-23T02:30:03;15.40;67.50
81383;DHT22;70834;37.534;-122.308;2024-02-23T02:32:25;15.30;68.00
81383;DHT22;70834;37.534;-122.308;2024-02-23T02:34:46;15.20;68.20
81383;DHT22;70834;37.534;-122.308;2024-02-23T02:37:07;15.10;68.40
81383;DHT22;70834;37.534;-122.308;2024-02-23T02:39:29;15.00;68.60
81383;DHT22;70834;37.534;-122.308;2024-02-23T02:41:51;15.00;69.60
81383;DHT22;70834;37.534;-122.308;2024-02-23T02:44:12;14.90;69.40
81383;DHT22;70834;37.534;-122.308;2024-02-23T02:46:35;14.80;69.60
81383;DHT22;70834;37.534;-122.308;2024-02-23T02:48:56;14.70;69.70
81383;DHT22;70834;37.534;-122.308;2024-02-23T02:51:18;14.70;69.90
81383;DHT22;70834;37.534;-122.308;2024-02-23T02:53:39;14.60;70.10
81383;DHT22;70834;37.534;-122.308;2024-02-23T02:56:01;14.50;70.40
81383;DHT22;70834;37.534;-122.308;2024-02-23T02:58:23;14.40;70.70
81383;DHT22;70834;37.534;-122.308;2024-02-23T03:00:45;14.30;71.00
81383;DHT22;70834;37.534;-122.308;2024-02-23T03:03:06;14.30;71.30
81383;DHT22;70834;37.534;-122.308;2024-02-23T03:05:28;14.20;71.60
81383;DHT22;70834;37.534;-122.308;2024-02-23T03:07:49;14.10;71.80
81383;DHT22;70834;37.534;-122.308;2024-02-23T03:10:11;14.10;72.00
81383;DHT22;70834;37.534;-122.308;2024-02-23T03:12:32;14.00;72.30
81383;DHT22;70834;37.534;-122.308;2024-02-23T03:14:53;14.00;72.50
81383;DHT22;70834;37.534;-122.308;2024-02-23T03:17:16;13.90;72.60
81383;DHT22;70834;37.534;-122.308;2024-02-23T03:19:38;13.90;72.90
81383;DHT22;70834;37.534;-122.308;2024-02-23T03:22:01;13.80;73.00
81383;DHT22;70834;37.534;-122.308;2024-02-23T03:24:23;13.80;73.40
81383;DHT22;70834;37.534;-122.308;2024-02-23T03:26:44;13.80;73.40
81383;DHT22;70834;37.534;-122.308;2024-02-23T03:29:05;13.70;73.70
81383;DHT22;70834;37.534;-122.308;2024-02-23T03:31:27;13.60;74.00
81383;DHT22;70834;37.534;-122.308;2024-02-23T03:33:48;13.60;74.20
81383;DHT22;70834;37.534;-122.308;2024-02-23T03:36:10;13.50;74.50
81383;DHT22;70834;37.534;-122.308;2024-02-23T03:38:31;13.50;74.50
81383;DHT22;70834;37.534;-122.308;2024-02-23T03:40:54;13.50;75.50
81383;DHT22;70834;37.534;-122.308;2024-02-23T03:43:16;13.40;75.20
81383;DHT22;70834;37.534;-122.308;2024-02-23T03:45:37;13.40;76.10
81383;DHT22;70834;37.534;-122.308;2024-02-23T03:47:59;13.40;75.60
81383;DHT22;70834;37.534;-122.308;2024-02-23T03:50:21;13.30;75.60
81383;DHT22;70834;37.534;-122.308;2024-02-23T03:52:42;13.30;75.70
81383;DHT22;70834;37.534;-122.308;2024-02-23T03:55:04;13.30;76.00
81383;DHT22;70834;37.534;-122.308;2024-02-23T03:57:26;13.20;76.10
81383;DHT22;70834;37.534;-122.308;2024-02-23T03:59:54;13.20;76.10
81383;DHT22;70834;37.534;-122.308;2024-02-23T04:02:15;13.20;76.20
81383;DHT22;70834;37.534;-122.308;2024-02-23T04:04:37;13.10;76.30
81383;DHT22;70834;37.534;-122.308;2024-02-23T04:06:58;13.10;76.20
81383;DHT22;70834;37.534;-122.308;2024-02-23T04:09:20;13.10;76.20
81383;DHT22;70834;37.534;-122.308;2024-02-23T04:11:41;13.00;76.20
81383;DHT22;70834;37.534;-122.308;2024-02-23T04:14:03;13.00;76.40
81383;DHT22;70834;37.534;-122.308;2024-02-23T04:16:26;13.00;76.70
81383;DHT22;70834;37.534;-122.308;2024-02-23T04:18:48;12.90;76.80
81383;DHT22;70834;37.534;-122.308;2024-02-23T04:21:09;12.90;76.80
81383;DHT22;70834;37.534;-122.308;2024-02-23T04:23:31;12.90;76.90
81383;DHT22;70834;37.534;-122.308;2024-02-23T04:25:52;12.80;77.00
81383;DHT22;70834;37.534;-122.308;2024-02-23T04:28:14;12.80;77.40
81383;DHT22;70834;37.534;-122.308;2024-02-23T04:30:35;12.80;77.50
81383;DHT22;70834;37.534;-122.308;2024-02-23T04:32:56;12.70;77.60
81383;DHT22;70834;37.534;-122.308;2024-02-23T04:35:18;12.80;77.90
81383;DHT22;70834;37.534;-122.308;2024-02-23T04:37:39;12.70;78.00
81383;DHT22;70834;37.534;-122.308;2024-02-23T04:40:01;12.70;78.10
81383;DHT22;70834;37.534;-122.308;2024-02-23T04:42:22;12.70;78.20
81383;DHT22;70834;37.534;-122.308;2024-02-23T04:44:44;12.60;78.30
81383;DHT22;70834;37.534;-122.308;2024-02-23T04:47:05;12.60;78.40
81383;DHT22;70834;37.534;-122.308;2024-02-23T04:49:27;12.60;78.50
81383;DHT22;70834;37.534;-122.308;2024-02-23T04:51:48;12.50;78.30
81383;DHT22;70834;37.534;-122.308;2024-02-23T04:54:09;12.50;78.20
81383;DHT22;70834;37.534;-122.308;2024-02-23T04:56:31;12.50;78.40
81383;DHT22;70834;37.534;-122.308;2024-02-23T04:58:52;12.50;78.60
81383;DHT22;70834;37.534;-122.308;2024-02-23T05:01:14;12.50;78.70
81383;DHT22;70834;37.534;-122.308;2024-02-23T05:03:35;12.40;78.60
81383;DHT22;70834;37.534;-122.308;2024-02-23T05:05:57;12.40;78.60
81383;DHT22;70834;37.534;-122.308;2024-02-23T05:08:19;12.40;78.60
81383;DHT22;70834;37.534;-122.308;2024-02-23T05:10:41;12.30;79.30
81383;DHT22;70834;37.534;-122.308;2024-02-23T05:13:02;12.30;78.90
81383;DHT22;70834;37.534;-122.308;2024-02-23T05:15:24;12.30;78.90
81383;DHT22;70834;37.534;-122.308;2024-02-23T05:17:45;12.30;79.00
81383;DHT22;70834;37.534;-122.308;2024-02-23T05:20:08;12.20;79.80
81383;DHT22;70834;37.534;-122.308;2024-02-23T05:22:31;12.20;79.30
81383;DHT22;70834;37.534;-122.308;2024-02-23T05:24:52;12.20;79.30
81383;DHT22;70834;37.534;-122.308;2024-02-23T05:27:14;12.20;79.50
81383;DHT22;70834;37.534;-122.308;2024-02-23T05:29:35;12.20;79.60
81383;DHT22;70834;37.534;-122.308;2024-02-23T05:31:56;12.10;79.50
81383;DHT22;70834;37.534;-122.308;2024-02-23T05:34:18;12.10;79.50
81383;DHT22;70834;37.534;-122.308;2024-02-23T05:36:40;12.10;79.60
81383;DHT22;70834;37.534;-122.308;2024-02-23T05:39:01;12.10;79.70
81383;DHT22;70834;37.534;-122.308;2024-02-23T05:41:23;12.00;79.70
81383;DHT22;70834;37.534;-122.308;2024-02-23T05:43:44;12.00;79.50
81383;DHT22;70834;37.534;-122.308;2024-02-23T05:46:06;12.00;79.50
81383;DHT22;70834;37.534;-122.308;2024-02-23T05:48:27;12.00;79.50
81383;DHT22;70834;37.534;-122.308;2024-02-23T05:50:48;12.00;79.40
81383;DHT22;70834;37.534;-122.308;2024-02-23T05:53:13;11.90;79.40
81383;DHT22;70834;37.534;-122.308;2024-02-23T05:55:34;11.90;79.50
81383;DHT22;70834;37.534;-122.308;2024-02-23T05:57:56;11.90;79.70
81383;DHT22;70834;37.534;-122.308;2024-02-23T06:00:18;11.80;79.70
81383;DHT22;70834;37.534;-122.308;2024-02-23T06:02:39;11.80;79.90
81383;DHT22;70834;37.534;-122.308;2024-02-23T06:05:01;11.80;80.10
81383;DHT22;70834;37.534;-122.308;2024-02-23T06:07:22;11.80;80.20
81383;DHT22;70834;37.534;-122.308;2024-02-23T06:09:49;11.80;80.40
81383;DHT22;70834;37.534;-122.308;2024-02-23T06:12:11;11.80;80.50
81383;DHT22;70834;37.534;-122.308;2024-02-23T06:14:32;11.70;80.40
81383;DHT22;70834;37.534;-122.308;2024-02-23T06:16:53;11.70;80.50
81383;DHT22;70834;37.534;-122.308;2024-02-23T06:19:15;11.70;80.50
81383;DHT22;70834;37.534;-122.308;2024-02-23T06:21:36;11.70;80.70
81383;DHT22;70834;37.534;-122.308;2024-02-23T06:23:58;11.70;80.60
81383;DHT22;70834;37.534;-122.308;2024-02-23T06:26:20;11.60;80.60
81383;DHT22;70834;37.534;-122.308;2024-02-23T06:28:41;11.60;81.30
81383;DHT22;70834;37.534;-122.308;2024-02-23T06:31:06;11.60;80.70
81383;DHT22;70834;37.534;-122.308;2024-02-23T06:33:28;11.60;80.80
81383;DHT22;70834;37.534;-122.308;2024-02-23T06:35:50;11.60;80.80
81383;DHT22;70834;37.534;-122.308;2024-02-23T06:38:13;11.60;81.00
81383;DHT22;70834;37.534;-122.308;2024-02-23T06:40:34;11.50;81.00
81383;DHT22;70834;37.534;-122.308;2024-02-23T06:42:55;11.50;81.00
81383;DHT22;70834;37.534;-122.308;2024-02-23T06:45:17;11.50;81.10
81383;DHT22;70834;37.534;-122.308;2024-02-23T06:47:40;11.50;81.20
81383;DHT22;70834;37.534;-122.308;2024-02-23T06:50:01;11.50;81.30
81383;DHT22;70834;37.534;-122.308;2024-02-23T06:52:24;11.50;81.40
81383;DHT22;70834;37.534;-122.308;2024-02-23T06:54:47;11.50;81.40
81383;DHT22;70834;37.534;-122.308;2024-02-23T06:57:08;11.40;81.50
81383;DHT22;70834;37.534;-122.308;2024-02-23T06:59:29;11.40;81.60
81383;DHT22;70834;37.534;-122.308;2024-02-23T07:01:51;11.40;81.70
81383;DHT22;70834;37.534;-122.308;2024-02-23T07:04:13;11.40;81.60
81383;DHT22;70834;37.534;-122.308;2024-02-23T07:06:34;11.40;81.70
81383;DHT22;70834;37.534;-122.308;2024-02-23T07:08:57;11.40;81.80
81383;DHT22;70834;37.534;-122.308;2024-02-23T07:11:18;11.40;82.00
81383;DHT22;70834;37.534;-122.308;2024-02-23T07:13:43;11.30;82.00
81383;DHT22;70834;37.534;-122.308;2024-02-23T07:16:05;11.30;82.00
81383;DHT22;70834;37.534;-122.308;2024-02-23T07:18:27;11.30;82.10
81383;DHT22;70834;37.534;-122.308;2024-02-23T07:20:49;11.30;82.10
81383;DHT22;70834;37.534;-122.308;2024-02-23T07:23:10;11.30;82.10
81383;DHT22;70834;37.534;-122.308;2024-02-23T07:25:31;11.30;82.10
81383;DHT22;70834;37.534;-122.308;2024-02-23T07:27:53;11.30;82.10
81383;DHT22;70834;37.534;-122.308;2024-02-23T07:30:15;11.30;82.10
81383;DHT22;70834;37.534;-122.308;2024-02-23T07:32:39;11.30;82.10
81383;DHT22;70834;37.534;-122.308;2024-02-23T07:35:01;11.30;82.00
81383;DHT22;70834;37.534;-122.308;2024-02-23T07:37:26;11.20;82.00
81383;DHT22;70834;37.534;-122.308;2024-02-23T07:39:48;11.20;82.20
81383;DHT22;70834;37.534;-122.308;2024-02-23T07:42:09;11.20;82.20
81383;DHT22;70834;37.534;-122.308;2024-02-23T07:44:31;11.20;82.30
81383;DHT22;70834;37.534;-122.308;2024-02-23T07:46:53;11.20;82.30
81383;DHT22;70834;37.534;-122.308;2024-02-23T07:49:16;11.20;82.30
81383;DHT22;70834;37.534;-122.308;2024-02-23T07:51:37;11.20;82.30
81383;DHT22;70834;37.534;-122.308;2024-02-23T07:53:58;11.20;82.20
81383;DHT22;70834;37.534;-122.308;2024-02-23T07:56:20;11.10;82.20
81383;DHT22;70834;37.534;-122.308;2024-02-23T07:58:42;11.10;82.30
81383;DHT22;70834;37.534;-122.308;2024-02-23T08:01:03;11.10;82.30
81383;DHT22;70834;37.534;-122.308;2024-02-23T08:03:45;11.10;82.30
81383;DHT22;70834;37.534;-122.308;2024-02-23T08:06:06;11.10;82.30
81383;DHT22;70834;37.534;-122.308;2024-02-23T08:08:28;11.10;82.30
81383;DHT22;70834;37.534;-122.308;2024-02-23T08:10:49;11.10;82.20
81383;DHT22;70834;37.534;-122.308;2024-02-23T08:13:10;11.00;82.20
81383;DHT22;70834;37.534;-122.308;2024-02-23T08:15:32;11.00;82.20
81383;DHT22;70834;37.534;-122.308;2024-02-23T08:17:53;11.00;82.10
81383;DHT22;70834;37.534;-122.308;2024-02-23T08:20:15;11.00;82.10
81383;DHT22;70834;37.534;-122.308;2024-02-23T08:22:36;10.90;82.20
81383;DHT22;70834;37.534;-122.308;2024-02-23T08:24:58;10.90;82.20
81383;DHT22;70834;37.534;-122.308;2024-02-23T08:27:19;10.90;82.30
81383;DHT22;70834;37.534;-122.308;2024-02-23T08:29:40;10.90;82.40
81383;DHT22;70834;37.534;-122.308;2024-02-23T08:32:02;10.90;82.50
81383;DHT22;70834;37.534;-122.308;2024-02-23T08:34:23;10.90;82.60
81383;DHT22;70834;37.534;-122.308;2024-02-23T08:36:46;10.80;82.50
81383;DHT22;70834;37.534;-122.308;2024-02-23T08:39:07;10.80;82.50
81383;DHT22;70834;37.534;-122.308;2024-02-23T08:41:29;10.80;82.50
81383;DHT22;70834;37.534;-122.308;2024-02-23T08:43:51;10.80;82.60
81383;DHT22;70834;37.534;-122.308;2024-02-23T08:46:12;10.80;82.60
81383;DHT22;70834;37.534;-122.308;2024-02-23T08:48:33;10.80;82.60
81383;DHT22;70834;37.534;-122.308;2024-02-23T08:50:55;10.70;82.50
81383;DHT22;70834;37.534;-122.308;2024-02-23T08:53:16;10.70;82.60
81383;DHT22;70834;37.534;-122.308;2024-02-23T08:55:38;10.80;82.80
81383;DHT22;70834;37.534;-122.308;2024-02-23T08:57:59;10.70;82.90
81383;DHT22;70834;37.534;-122.308;2024-02-23T09:00:21;10.70;82.90
81383;DHT22;70834;37.534;-122.308;2024-02-23T09:02:42;10.70;82.90
81383;DHT22;70834;37.534;-122.308;2024-02-23T09:05:04;10.70;82.90
81383;DHT22;70834;37.534;-122.308;2024-02-23T09:07:26;10.70;82.90
81383;DHT22;70834;37.534;-122.308;2024-02-23T09:09:47;10.70;82.90
81383;DHT22;70834;37.534;-122.308;2024-02-23T09:12:12;10.60;82.80
81383;DHT22;70834;37.534;-122.308;2024-02-23T09:14:35;10.60;82.90
81383;DHT22;70834;37.534;-122.308;2024-02-23T09:16:58;10.60;82.90
81383;DHT22;70834;37.534;-122.308;2024-02-23T09:19:20;10.60;83.00
81383;DHT22;70834;37.534;-122.308;2024-02-23T09:21:41;10.60;83.00
81383;DHT22;70834;37.534;-122.308;2024-02-23T09:24:03;10.60;83.10
81383;DHT22;70834;37.534;-122.308;2024-02-23T09:26:24;10.60;83.10
81383;DHT22;70834;37.534;-122.308;2024-02-23T09:28:46;10.60;83.10
81383;DHT22;70834;37.534;-122.308;2024-02-23T09:31:07;10.50;83.00
81383;DHT22;70834;37.534;-122.308;2024-02-23T09:33:29;10.50;83.00
81383;DHT22;70834;37.534;-122.308;2024-02-23T09:35:50;10.50;83.10
81383;DHT22;70834;37.534;-122.308;2024-02-23T09:38:11;10.50;83.10
81383;DHT22;70834;37.534;-122.308;2024-02-23T09:40:33;10.50;83.30
81383;DHT22;70834;37.534;-122.308;2024-02-23T09:43:19;10.50;83.30
81383;DHT22;70834;37.534;-122.308;2024-02-23T09:45:41;10.40;83.30
81383;DHT22;70834;37.534;-122.308;2024-02-23T09:48:03;10.40;83.20
81383;DHT22;70834;37.534;-122.308;2024-02-23T09:50:25;10.40;83.20
81383;DHT22;70834;37.534;-122.308;2024-02-23T09:52:48;10.40;83.20
81383;DHT22;70834;37.534;-122.308;2024-02-23T09:55:11;10.40;83.30
81383;DHT22;70834;37.534;-122.308;2024-02-23T09:57:33;10.40;83.30
81383;DHT22;70834;37.534;-122.308;2024-02-23T09:59:56;10.40;84.00
81383;DHT22;70834;37.534;-122.308;2024-02-23T10:02:18;10.40;83.40
81383;DHT22;70834;37.534;-122.308;2024-02-23T10:04:41;10.30;83.40
81383;DHT22;70834;37.534;-122.308;2024-02-23T10:07:04;10.30;83.40
81383;DHT22;70834;37.534;-122.308;2024-02-23T10:09:25;10.30;83.50
81383;DHT22;70834;37.534;-122.308;2024-02-23T10:11:54;10.30;83.50
81383;DHT22;70834;37.534;-122.308;2024-02-23T10:14:16;10.30;83.60
81383;DHT22;70834;37.534;-122.308;2024-02-23T10:16:38;10.30;83.60
81383;DHT22;70834;37.534;-122.308;2024-02-23T10:18:59;10.30;83.60
81383;DHT22;70834;37.534;-122.308;2024-02-23T10:21:20;10.30;83.60
81383;DHT22;70834;37.534;-122.308;2024-02-23T10:23:46;10.20;83.50
81383;DHT22;70834;37.534;-122.308;2024-02-23T10:26:08;10.20;83.50
81383;DHT22;70834;37.534;-122.308;2024-02-23T10:28:30;10.20;83.50
81383;DHT22;70834;37.534;-122.308;2024-02-23T10:30:52;10.20;83.60
81383;DHT22;70834;37.534;-122.308;2024-02-23T10:33:14;10.20;83.70
81383;DHT22;70834;37.534;-122.308;2024-02-23T10:35:38;10.20;83.80
81383;DHT22;70834;37.534;-122.308;2024-02-23T10:38:02;10.20;83.90
81383;DHT22;70834;37.534;-122.308;2024-02-23T10:40:25;10.20;84.00
81383;DHT22;70834;37.534;-122.308;2024-02-23T10:42:48;10.10;83.90
81383;DHT22;70834;37.534;-122.308;2024-02-23T10:45:12;10.10;83.80
81383;DHT22;70834;37.534;-122.308;2024-02-23T10:47:33;10.10;83.70
81383;DHT22;70834;37.534;-122.308;2024-02-23T10:49:56;10.10;83.70
81383;DHT22;70834;37.534;-122.308;2024-02-23T10:52:22;10.10;83.60
81383;DHT22;70834;37.534;-122.308;2024-02-23T10:54:46;10.10;83.60
81383;DHT22;70834;37.534;-122.308;2024-02-23T10:57:08;10.10;83.60
81383;DHT22;70834;37.534;-122.308;2024-02-23T10:59:30;10.10;83.60
81383;DHT22;70834;37.534;-122.308;2024-02-23T11:01:53;10.00;83.50
81383;DHT22;70834;37.534;-122.308;2024-02-23T11:04:22;10.00;83.50
81383;DHT22;70834;37.534;-122.308;2024-02-23T11:06:50;10.00;83.60
81383;DHT22;70834;37.534;-122.308;2024-02-23T11:09:13;10.00;83.70
81383;DHT22;70834;37.534;-122.308;2024-02-23T11:11:34;10.00;83.70
81383;DHT22;70834;37.534;-122.308;2024-02-23T11:13:56;9.90;83.70
81383;DHT22;70834;37.534;-122.308;2024-02-23T11:16:27;9.90;83.80
81383;DHT22;70834;37.534;-122.308;2024-02-23T11:18:48;9.90;83.80
81383;DHT22;70834;37.534;-122.308;2024-02-23T11:21:10;9.90;83.80
81383;DHT22;70834;37.534;-122.308;2024-02-23T11:23:48;9.90;83.90
81383;DHT22;70834;37.534;-122.308;2024-02-23T11:26:13;9.90;84.00
81383;DHT22;70834;37.534;-122.308;2024-02-23T11:28:54;9.80;83.90
81383;DHT22;70834;37.534;-122.308;2024-02-23T11:31:19;9.80;83.90
81383;DHT22;70834;37.534;-122.308;2024-02-23T11:33:52;9.80;83.90
81383;DHT22;70834;37.534;-122.308;2024-02-23T11:36:22;9.80;83.80
81383;DHT22;70834;37.534;-122.308;2024-02-23T11:38:44;9.70;83.70
81383;DHT22;70834;37.534;-122.308;2024-02-23T11:41:06;9.70;83.60
81383;DHT22;70834;37.534;-122.308;2024-02-23T11:43:28;9.70;83.60
81383;DHT22;70834;37.534;-122.308;2024-02-23T11:45:49;9.70;83.60
81383;DHT22;70834;37.534;-122.308;2024-02-23T11:48:12;9.70;83.60
81383;DHT22;70834;37.534;-122.308;2024-02-23T11:50:33;9.70;83.70
81383;DHT22;70834;37.534;-122.308;2024-02-23T11:52:55;9.70;83.70
81383;DHT22;70834;37.534;-122.308;2024-02-23T11:55:22;9.60;83.60
81383;DHT22;70834;37.534;-122.308;2024-02-23T11:57:44;9.60;83.70
81383;DHT22;70834;37.534;-122.308;2024-02-23T12:00:06;9.60;84.40
81383;DHT22;70834;37.534;-122.308;2024-02-23T12:02:29;9.60;83.80
81383;DHT22;70834;37.534;-122.308;2024-02-23T12:04:51;9.60;83.80
81383;DHT22;70834;37.534;-122.308;2024-02-23T12:07:12;9.60;83.90
81383;DHT22;70834;37.534;-122.308;2024-02-23T12:09:34;9.60;84.00
81383;DHT22;70834;37.534;-122.308;2024-02-23T12:11:55;9.50;84.00
81383;DHT22;70834;37.534;-122.308;2024-02-23T12:14:37;9.50;84.50
81383;DHT22;70834;37.534;-122.308;2024-02-23T12:16:58;9.50;84.00
81383;DHT22;70834;37.534;-122.308;2024-02-23T12:19:20;9.50;84.00
81383;DHT22;70834;37.534;-122.308;2024-02-23T12:21:45;9.50;84.00
81383;DHT22;70834;37.534;-122.308;2024-02-23T12:24:07;9.50;84.00
81383;DHT22;70834;37.534;-122.308;2024-02-23T12:26:29;9.40;84.10
81383;DHT22;70834;37.534;-122.308;2024-02-23T12:28:50;9.40;84.20
81383;DHT22;70834;37.534;-122.308;2024-02-23T12:31:12;9.40;84.20
81383;DHT22;70834;37.534;-122.308;2024-02-23T12:33:35;9.40;84.20
81383;DHT22;70834;37.534;-122.308;2024-02-23T12:35:58;9.40;84.30
81383;DHT22;70834;37.534;-122.308;2024-02-23T12:38:19;9.40;84.40
81383;DHT22;70834;37.534;-122.308;2024-02-23T12:40:41;9.40;84.40
81383;DHT22;70834;37.534;-122.308;2024-02-23T12:43:02;9.40;84.40
81383;DHT22;70834;37.534;-122.308;2024-02-23T12:45:24;9.30;84.40
81383;DHT22;70834;37.534;-122.308;2024-02-23T12:47:45;9.30;84.40
81383;DHT22;70834;37.534;-122.308;2024-02-23T12:50:07;9.30;84.40
81383;DHT22;70834;37.534;-122.308;2024-02-23T12:52:29;9.30;84.40
81383;DHT22;70834;37.534;-122.308;2024-02-23T12:54:50;9.30;84.50
81383;DHT22;70834;37.534;-122.308;2024-02-23T12:57:11;9.30;84.50
81383;DHT22;70834;37.534;-122.308;2024-02-23T12:59:33;9.30;84.40
81383;DHT22;70834;37.534;-122.308;2024-02-23T13:01:55;9.30;84.40
81383;DHT22;70834;37.534;-122.308;2024-02-23T13:04:16;9.30;84.50
81383;DHT22;70834;37.534;-122.308;2024-02-23T13:06:40;9.30;84.50
81383;DHT22;70834;37.534;-122.308;2024-02-23T13:09:03;9.20;84.50
81383;DHT22;70834;37.534;-122.308;2024-02-23T13:11:25;9.20;84.40
81383;DHT22;70834;37.534;-122.308;2024-02-23T13:13:46;9.20;84.40
81383;DHT22;70834;37.534;-122.308;2024-02-23T13:16:08;9.20;84.30
81383;DHT22;70834;37.534;-122.308;2024-02-23T13:18:29;9.20;84.30
81383;DHT22;70834;37.534;-122.308;2024-02-23T13:20:51;9.20;84.20
81383;DHT22;70834;37.534;-122.308;2024-02-23T13:23:12;9.10;84.00
81383;DHT22;70834;37.534;-122.308;2024-02-23T13:25:37;9.10;83.90
81383;DHT22;70834;37.534;-122.308;2024-02-23T13:27:58;9.10;83.90
81383;DHT22;70834;37.534;-122.308;2024-02-23T13:30:20;9.10;84.00
81383;DHT22;70834;37.534;-122.308;2024-02-23T13:32:41;9.10;84.00
81383;DHT22;70834;37.534;-122.308;2024-02-23T13:35:03;9.10;84.10
81383;DHT22;70834;37.534;-122.308;2024-02-23T13:37:27;9.00;84.00
81383;DHT22;70834;37.534;-122.308;2024-02-23T13:39:48;9.00;84.00
81383;DHT22;70834;37.534;-122.308;2024-02-23T13:42:10;9.00;84.10
81383;DHT22;70834;37.534;-122.308;2024-02-23T13:44:31;9.00;84.20
81383;DHT22;70834;37.534;-122.308;2024-02-23T13:46:53;9.00;84.20
81383;DHT22;70834;37.534;-122.308;2024-02-23T13:49:15;9.00;84.30
81383;DHT22;70834;37.534;-122.308;2024-02-23T13:51:36;9.00;84.40
81383;DHT22;70834;37.534;-122.308;2024-02-23T13:53:58;9.00;84.40
81383;DHT22;70834;37.534;-122.308;2024-02-23T13:56:19;8.90;84.40
81383;DHT22;70834;37.534;-122.308;2024-02-23T13:58:41;9.00;84.40
81383;DHT22;70834;37.534;-122.308;2024-02-23T14:01:02;8.90;84.40
81383;DHT22;70834;37.534;-122.308;2024-02-23T14:03:23;8.90;84.40
81383;DHT22;70834;37.534;-122.308;2024-02-23T14:05:45;8.90;84.30
81383;DHT22;70834;37.534;-122.308;2024-02-23T14:08:07;8.90;84.20
81383;DHT22;70834;37.534;-122.308;2024-02-23T14:10:29;8.90;84.30
81383;DHT22;70834;37.534;-122.308;2024-02-23T14:12:50;8.90;84.30
81383;DHT22;70834;37.534;-122.308;2024-02-23T14:15:12;8.90;84.40
81383;DHT22;70834;37.534;-122.308;2024-02-23T14:17:36;8.90;84.40
81383;DHT22;70834;37.534;-122.308;2024-02-23T14:19:57;8.90;84.50